createdAt,value
2022-12-11T00:00:15.433Z,92605.53
2022-12-11T00:02:42.471Z,92583.50
2022-12-11T00:05:09.961Z,92598.38
2022-12-11T00:07:37.039Z,92602.91
2022-12-11T00:10:04.967Z,92586.00
2022-12-11T00:12:32.115Z,92584.84
2022-12-11T00:14:59.079Z,92552.19
2022-12-11T00:17:26.053Z,92587.19
2022-12-11T00:19:52.999Z,92580.22
2022-12-11T00:22:20.250Z,92634.78
2022-12-11T00:24:47.415Z,92619.28
2022-12-11T00:27:14.469Z,92602.63
2022-12-11T00:29:41.494Z,92599.66
2022-12-11T00:32:08.501Z,92606.47
2022-12-11T00:34:35.583Z,92580.22
2022-12-11T00:37:02.561Z,92576.97
2022-12-11T00:39:29.679Z,92555.38
2022-12-11T00:41:56.601Z,92579.47
2022-12-11T00:44:23.516Z,92574.72
2022-12-11T00:46:50.514Z,92541.16
2022-12-11T00:49:17.542Z,92551.66
2022-12-11T00:51:44.652Z,92550.75
2022-12-11T00:54:11.654Z,92551.13
2022-12-11T00:56:38.616Z,92580.75
2022-12-11T00:59:05.581Z,92562.38
2022-12-11T01:01:32.633Z,92573.88
2022-12-11T01:03:59.626Z,92562.19
2022-12-11T01:06:28.485Z,92583.00
2022-12-11T01:09:15.343Z,92575.28
2022-12-11T01:11:43.161Z,92561.53
2022-12-11T01:14:11.713Z,92579.66
2022-12-11T01:16:38.872Z,92591.63
2022-12-11T01:19:06.094Z,92581.16
2022-12-11T01:21:33.099Z,92562.25
2022-12-11T01:24:00.030Z,92570.94
2022-12-11T01:26:27.076Z,92554.19
2022-12-11T01:28:54.010Z,92551.50
2022-12-11T01:31:21.416Z,92532.34
2022-12-11T01:33:48.450Z,92534.72
2022-12-11T01:36:20.537Z,92540.50
2022-12-11T01:38:49.051Z,92536.47
2022-12-11T01:41:17.258Z,92536.78
2022-12-11T01:44:37.468Z,92511.59
2022-12-11T01:47:04.482Z,92535.66
2022-12-11T01:49:31.610Z,92518.47
2022-12-11T01:52:21.494Z,92500.47
2022-12-11T01:54:49.226Z,92525.84
2022-12-11T01:57:16.743Z,92540.53
2022-12-11T01:59:46.507Z,92498.13
2022-12-11T02:02:32.062Z,92499.28
2022-12-11T02:04:59.061Z,92504.72
2022-12-11T02:07:26.184Z,92507.78
2022-12-11T02:09:53.289Z,92484.28
2022-12-11T02:12:45.024Z,92488.53
2022-12-11T02:15:33.640Z,92465.38
2022-12-11T02:18:13.709Z,92450.41
2022-12-11T02:20:54.268Z,92448.88
2022-12-11T02:24:07.169Z,92462.06
2022-12-11T02:26:54.456Z,92442.09
2022-12-11T02:29:34.435Z,92445.19
2022-12-11T02:32:06.130Z,92446.44
2022-12-11T02:34:50.099Z,92445.34
2022-12-11T02:37:22.141Z,92447.72
2022-12-11T02:39:52.359Z,92455.09
2022-12-11T02:42:21.527Z,92455.50
2022-12-11T02:44:50.962Z,92446.63
2022-12-11T02:47:20.134Z,92473.34
2022-12-11T02:49:50.181Z,92456.34
2022-12-11T02:52:21.047Z,92468.75
2022-12-11T02:54:52.065Z,92468.81
2022-12-11T02:57:53.069Z,92485.06
2022-12-11T03:00:20.159Z,92486.63
2022-12-11T03:02:47.192Z,92467.31
2022-12-11T03:05:15.563Z,92450.34
2022-12-11T03:07:44.269Z,92465.81
2022-12-11T03:10:14.922Z,92468.56
2022-12-11T03:12:49.207Z,92475.13
2022-12-11T03:15:21.779Z,92468.22
2022-12-11T03:18:09.884Z,92469.00
2022-12-11T03:21:05.979Z,92489.50
2022-12-11T03:23:49.940Z,92504.56
2022-12-11T03:26:19.675Z,92469.06
2022-12-11T03:29:02.659Z,92464.81
2022-12-11T03:31:43.492Z,92487.16
2022-12-11T03:34:38.475Z,92465.97
2022-12-11T03:37:07.405Z,92488.34
2022-12-11T03:39:40.827Z,92489.13
2022-12-11T03:42:12.251Z,92501.50
2022-12-11T03:44:40.668Z,92508.81
2022-12-11T03:47:10.072Z,92508.03
2022-12-11T03:49:43.778Z,92535.06
2022-12-11T03:52:13.089Z,92534.28
2022-12-11T03:54:41.978Z,92560.53
2022-12-11T03:57:12.338Z,92566.75
2022-12-11T03:59:39.250Z,92568.38
2022-12-11T04:02:11.165Z,92554.81
2022-12-11T04:04:39.784Z,92559.09
2022-12-11T04:07:07.241Z,92573.03
2022-12-11T04:09:34.888Z,92593.91
2022-12-11T04:12:01.888Z,92589.59
2022-12-11T04:15:07.177Z,92595.38
2022-12-11T04:17:54.954Z,92641.66
2022-12-11T04:20:40.708Z,92649.84
2022-12-11T04:23:30.916Z,92638.22
2022-12-11T04:26:09.811Z,92637.34
2022-12-11T04:28:37.725Z,92623.81
2022-12-11T04:31:05.230Z,92643.13
2022-12-11T04:33:32.189Z,92638.97
2022-12-11T04:36:00.557Z,92646.56
2022-12-11T04:38:27.812Z,92645.78
2022-12-11T04:41:03.169Z,92650.44
2022-12-11T04:43:30.143Z,92650.84
2022-12-11T04:46:12.667Z,92657.69
2022-12-11T04:48:40.365Z,92660.34
2022-12-11T04:51:07.516Z,92660.00
2022-12-11T04:53:34.610Z,92653.81
2022-12-11T04:56:01.634Z,92665.25
2022-12-11T04:58:28.720Z,92669.09
2022-12-11T05:00:55.698Z,92659.75
2022-12-11T05:03:23.564Z,92655.50
2022-12-11T05:05:54.236Z,92635.81
2022-12-11T05:08:21.781Z,92638.88
2022-12-11T05:11:02.954Z,92639.00
2022-12-11T05:13:30.571Z,92648.19
2022-12-11T05:15:58.549Z,92637.34
2022-12-11T05:18:26.149Z,92635.75
2022-12-11T05:21:01.425Z,92643.81
2022-12-11T05:23:28.831Z,92636.41
2022-12-11T05:25:57.641Z,92629.41
2022-12-11T05:28:26.247Z,92633.63
2022-12-11T05:31:08.900Z,92632.47
2022-12-11T05:33:35.873Z,92630.91
2022-12-11T05:36:03.401Z,92632.13
2022-12-11T05:38:30.510Z,92649.91
2022-12-11T05:41:02.721Z,92644.59
2022-12-11T05:43:31.681Z,92633.72
2022-12-11T05:46:25.551Z,92636.78
2022-12-11T05:48:56.075Z,92641.78
2022-12-11T05:51:23.153Z,92631.75
2022-12-11T05:53:52.303Z,92637.16
2022-12-11T05:56:22.691Z,92644.09
2022-12-11T05:58:50.420Z,92639.50
2022-12-11T06:01:21.091Z,92637.75
2022-12-11T06:03:48.240Z,92628.78
2022-12-11T06:06:15.667Z,92631.19
2022-12-11T06:08:42.714Z,92634.25
2022-12-11T06:11:09.689Z,92631.97
2022-12-11T06:13:37.054Z,92639.75
2022-12-11T06:16:06.180Z,92652.06
2022-12-11T06:18:36.564Z,92663.31
2022-12-11T06:21:44.077Z,92633.63
2022-12-11T06:24:11.605Z,92656.81
2022-12-11T06:26:38.650Z,92654.44
2022-12-11T06:29:09.237Z,92648.94
2022-12-11T06:31:39.907Z,92651.28
2022-12-11T06:34:06.869Z,92662.88
2022-12-11T06:36:33.844Z,92658.63
2022-12-11T06:39:00.751Z,92667.53
2022-12-11T06:41:27.725Z,92673.69
2022-12-11T06:43:54.713Z,92681.47
2022-12-11T06:46:21.783Z,92674.91
2022-12-11T06:48:49.799Z,92670.66
2022-12-11T06:51:19.643Z,92655.28
2022-12-11T06:53:52.051Z,92648.13
2022-12-11T06:56:19.058Z,92655.97
2022-12-11T06:58:46.224Z,92646.59
2022-12-11T07:01:25.956Z,92661.25
2022-12-11T07:03:54.637Z,92662.47
2022-12-11T07:06:22.080Z,92660.91
2022-12-11T07:08:49.126Z,92668.63
2022-12-11T07:11:18.517Z,92676.38
2022-12-11T07:13:46.093Z,92674.94
2022-12-11T07:16:15.972Z,92682.72
2022-12-11T07:18:51.593Z,92685.16
2022-12-11T07:21:20.717Z,92689.09
2022-12-11T07:23:49.106Z,92709.19
2022-12-11T07:26:19.524Z,92690.88
2022-12-11T07:28:47.536Z,92708.63
2022-12-11T07:31:21.428Z,92704.09
2022-12-11T07:33:52.639Z,92704.88
2022-12-11T07:36:19.399Z,92713.41
2022-12-11T07:38:46.549Z,92714.59
2022-12-11T07:41:15.100Z,92723.59
2022-12-11T07:43:42.861Z,92725.88
2022-12-11T07:46:13.670Z,92721.34
2022-12-11T07:48:42.349Z,92726.31
2022-12-11T07:51:23.019Z,92730.66
2022-12-11T07:53:50.462Z,92726.06
2022-12-11T07:56:18.847Z,92738.59
2022-12-11T07:58:46.757Z,92737.84
2022-12-11T08:01:26.255Z,92730.88
2022-12-11T08:03:54.039Z,92724.00
2022-12-11T08:06:26.807Z,92739.66
2022-12-11T08:08:55.158Z,92745.88
2022-12-11T08:11:22.521Z,92741.88
2022-12-11T08:13:49.947Z,92756.09
2022-12-11T08:16:18.079Z,92742.50
2022-12-11T08:18:46.171Z,92759.50
2022-12-11T08:21:19.826Z,92769.50
2022-12-11T08:23:47.133Z,92757.09
2022-12-11T08:26:17.043Z,92760.50
2022-12-11T08:28:44.856Z,92760.84
2022-12-11T08:31:13.620Z,92739.91
2022-12-11T08:33:41.957Z,92748.31
2022-12-11T08:36:11.972Z,92742.50
2022-12-11T08:38:39.204Z,92734.44
2022-12-11T08:41:13.744Z,92729.13
2022-12-11T08:43:41.118Z,92732.66
2022-12-11T08:46:08.541Z,92725.28
2022-12-11T08:48:37.661Z,92737.63
2022-12-11T08:51:07.931Z,92711.72
2022-12-11T08:53:35.017Z,92721.75
2022-12-11T08:56:13.645Z,92715.56
2022-12-11T08:58:40.711Z,92701.22
2022-12-11T09:01:11.126Z,92703.56
2022-12-11T09:03:39.719Z,92703.53
2022-12-11T09:06:09.266Z,92709.41
2022-12-11T09:08:36.510Z,92714.19
2022-12-11T09:11:08.364Z,92714.25
2022-12-11T09:13:35.454Z,92709.28
2022-12-11T09:16:05.967Z,92717.09
2022-12-11T09:18:33.150Z,92700.16
2022-12-11T09:21:05.731Z,92709.47
2022-12-11T09:23:33.074Z,92705.25
2022-12-11T09:26:00.283Z,92696.38
2022-12-11T09:28:27.277Z,92690.91
2022-12-11T09:30:54.193Z,92711.03
2022-12-11T09:33:21.161Z,92693.25
2022-12-11T09:36:00.000Z,92690.66
2022-12-11T09:38:27.318Z,92683.38
2022-12-11T09:40:54.468Z,92693.50
2022-12-11T09:43:39.757Z,92685.38
2022-12-11T09:46:12.831Z,92695.88
2022-12-11T09:48:46.922Z,92690.13
2022-12-11T09:51:43.084Z,92699.47
2022-12-11T09:54:13.775Z,92687.88
2022-12-11T09:56:52.645Z,92696.00
2022-12-11T09:59:39.485Z,92683.66
2022-12-11T10:02:44.919Z,92679.78
2022-12-11T10:06:01.035Z,92676.28
2022-12-11T10:08:43.596Z,92688.31
2022-12-11T10:11:54.473Z,92689.88
2022-12-11T10:14:37.062Z,92683.25
2022-12-11T10:17:34.316Z,92693.75
2022-12-11T10:20:27.078Z,92689.81
2022-12-11T10:22:56.267Z,92683.56
2022-12-11T10:25:29.051Z,92684.34
2022-12-11T10:27:56.376Z,92690.56
2022-12-11T10:30:34.447Z,92681.25
2022-12-11T10:33:31.839Z,92680.50
2022-12-11T10:35:59.325Z,92691.38
2022-12-11T10:38:31.825Z,92689.81
2022-12-11T10:41:04.333Z,92686.72
2022-12-11T10:43:40.112Z,92684.78
2022-12-11T10:46:14.244Z,92684.78
2022-12-11T10:48:54.117Z,92676.66
2022-12-11T10:51:47.512Z,92668.91
2022-12-11T10:54:38.427Z,92671.22
2022-12-11T10:57:08.289Z,92667.34
2022-12-11T10:59:46.685Z,92657.66
2022-12-11T11:02:34.937Z,92662.31
2022-12-11T11:05:17.200Z,92656.50
2022-12-11T11:07:44.379Z,92668.50
2022-12-11T11:10:17.929Z,92658.00
2022-12-11T11:12:50.712Z,92653.34
2022-12-11T11:15:28.228Z,92660.31
2022-12-11T11:17:57.815Z,92654.09
2022-12-11T11:20:28.624Z,92653.31
2022-12-11T11:22:59.188Z,92649.44
2022-12-11T11:25:29.368Z,92642.47
2022-12-11T11:28:24.495Z,92641.66
2022-12-11T11:31:02.709Z,92645.16
2022-12-11T11:33:31.189Z,92646.31
2022-12-11T11:36:01.828Z,92640.88
2022-12-11T11:38:34.032Z,92640.88
2022-12-11T11:41:20.225Z,92640.88
2022-12-11T11:43:51.365Z,92628.47
2022-12-11T11:46:23.573Z,92632.31
2022-12-11T11:49:13.211Z,92633.88
2022-12-11T11:51:45.711Z,92629.19
2022-12-11T11:54:48.595Z,92632.28
2022-12-11T11:58:01.030Z,92639.28
2022-12-11T12:00:33.577Z,92637.84
2022-12-11T12:03:04.125Z,92632.22
2022-12-11T12:05:57.543Z,92633.66
2022-12-11T12:08:54.611Z,92637.03
2022-12-11T12:11:51.420Z,92637.31
2022-12-11T12:15:11.245Z,92647.72
2022-12-11T12:18:04.116Z,92649.19
2022-12-11T12:21:12.849Z,92657.75
2022-12-11T12:24:11.588Z,92670.03
2022-12-11T12:26:53.521Z,92669.69
2022-12-11T12:30:06.580Z,92669.09
2022-12-11T12:33:11.670Z,92675.88
2022-12-11T12:35:50.132Z,92697.19
2022-12-11T12:39:01.188Z,92676.81
2022-12-11T12:42:21.859Z,92691.75
2022-12-11T12:52:48.731Z,92714.84
2022-12-11T12:55:29.311Z,92732.31
2022-12-11T12:58:00.622Z,92722.19
2022-12-11T13:00:38.007Z,92715.25
2022-12-11T13:03:23.115Z,92724.63
2022-12-11T13:08:55.936Z,92738.66
2022-12-11T13:11:33.327Z,92759.28
2022-12-11T13:14:27.308Z,92766.28
2022-12-11T13:17:24.562Z,92774.38
2022-12-11T13:20:09.720Z,92750.38
2022-12-11T13:22:47.989Z,92777.41
2022-12-11T13:25:36.237Z,92782.47
2022-12-11T13:28:58.736Z,92784.94
2022-12-11T13:31:32.900Z,92781.50
2022-12-11T13:34:14.375Z,92811.31
2022-12-11T13:36:46.267Z,92787.94
2022-12-11T13:39:32.234Z,92805.53
2022-12-11T13:42:04.806Z,92854.19
2022-12-11T13:44:39.123Z,92824.38
2022-12-11T13:47:11.310Z,92817.13
2022-12-11T13:49:42.363Z,92841.44
2022-12-11T13:52:18.230Z,92862.94
2022-12-11T13:55:14.776Z,92856.19
2022-12-11T13:57:46.565Z,92881.59
2022-12-11T14:00:22.563Z,92884.72
2022-12-11T14:02:51.983Z,92891.47
2022-12-11T14:05:19.427Z,92887.53
2022-12-11T14:07:52.443Z,92884.41
2022-12-11T14:10:28.331Z,92903.25
2022-12-11T14:13:04.168Z,92886.78
2022-12-11T14:15:33.316Z,92898.38
2022-12-11T14:18:01.079Z,92922.16
2022-12-11T14:20:30.688Z,92925.13
2022-12-11T14:23:28.365Z,92926.69
2022-12-11T14:26:00.606Z,92941.56
2022-12-11T14:28:30.793Z,92925.41
2022-12-11T14:30:59.882Z,92917.91
2022-12-11T14:33:32.699Z,92935.66
2022-12-11T14:36:01.024Z,92928.56
2022-12-11T14:38:37.256Z,92933.13
2022-12-11T14:41:13.405Z,92946.59
2022-12-11T14:43:50.098Z,92946.78
2022-12-11T14:46:40.564Z,92952.50
2022-12-11T14:49:22.986Z,92962.66
2022-12-11T14:51:51.874Z,92971.00
2022-12-11T14:54:29.815Z,92995.00
2022-12-11T14:56:57.966Z,92977.69
2022-12-11T14:59:31.620Z,92999.16
2022-12-11T15:02:21.495Z,92997.38
2022-12-11T15:05:02.302Z,93000.34
2022-12-11T15:07:29.722Z,92997.03
2022-12-11T15:09:56.680Z,93010.59
2022-12-11T15:12:24.596Z,93005.75
2022-12-11T15:14:57.617Z,92995.50
2022-12-11T15:17:26.283Z,93000.66
2022-12-11T15:19:57.230Z,92997.75
2022-12-11T15:22:28.598Z,93007.63
2022-12-11T15:24:55.625Z,93017.38
2022-12-11T15:27:37.763Z,93011.06
2022-12-11T15:30:40.252Z,93028.47
2022-12-11T15:33:28.473Z,93036.06
2022-12-11T15:36:06.281Z,93019.69
2022-12-11T15:38:40.823Z,93033.19
2022-12-11T15:41:16.043Z,93028.97
2022-12-11T15:43:45.053Z,93025.09
2022-12-11T15:46:12.059Z,93021.81
2022-12-11T15:48:39.171Z,93034.31
2022-12-11T15:51:06.487Z,93034.78
2022-12-11T15:53:33.511Z,93038.97
2022-12-11T15:56:00.654Z,93035.41
2022-12-11T15:58:28.219Z,93048.00
2022-12-11T16:00:55.625Z,93041.69
2022-12-11T16:03:23.733Z,93056.66
2022-12-11T16:05:52.520Z,93053.31
2022-12-11T16:08:22.638Z,93065.06
2022-12-11T16:10:51.667Z,93076.44
2022-12-11T16:13:18.747Z,93072.44
2022-12-11T16:15:48.640Z,93086.03
2022-12-11T16:18:22.256Z,93087.94
2022-12-11T16:20:50.288Z,93103.06
2022-12-11T16:23:17.852Z,93106.84
2022-12-11T16:25:46.063Z,93114.03
2022-12-11T16:28:18.268Z,93117.41
2022-12-11T16:30:45.611Z,93111.09
2022-12-11T16:33:13.954Z,93113.38
2022-12-11T16:35:43.055Z,93120.88
2022-12-11T16:38:11.474Z,93110.22
2022-12-11T16:40:38.460Z,93113.53
2022-12-11T16:43:06.222Z,93117.66
2022-12-11T16:45:33.234Z,93114.03
2022-12-11T16:48:03.692Z,93107.59
2022-12-11T16:50:31.356Z,93107.22
2022-12-11T16:52:59.049Z,93111.72
2022-12-11T16:55:26.002Z,93115.91
2022-12-11T16:57:53.077Z,93106.03
2022-12-11T17:00:20.691Z,93096.72
2022-12-11T17:02:47.767Z,93108.38
2022-12-11T17:05:15.073Z,93113.03
2022-12-11T17:07:42.225Z,93125.78
2022-12-11T17:10:09.661Z,93143.44
2022-12-11T17:12:36.716Z,93137.13
2022-12-11T17:15:04.023Z,93149.81
2022-12-11T17:17:31.372Z,93143.03
2022-12-11T17:19:58.407Z,93159.50
2022-12-11T17:22:25.564Z,93157.25
2022-12-11T17:24:52.602Z,93168.38
2022-12-11T17:27:19.640Z,93178.97
2022-12-11T17:29:49.568Z,93167.91
2022-12-11T17:32:17.739Z,93153.53
2022-12-11T17:34:46.165Z,93152.94
2022-12-11T17:37:13.165Z,93153.63
2022-12-11T17:39:40.148Z,93146.44
2022-12-11T17:42:07.035Z,93133.72
2022-12-11T17:44:34.051Z,93135.41
2022-12-11T17:47:04.689Z,93131.38
2022-12-11T17:49:34.700Z,93132.94
2022-12-11T17:52:01.670Z,93134.13
2022-12-11T17:54:28.657Z,93126.94
2022-12-11T17:56:55.568Z,93141.81
2022-12-11T17:59:22.622Z,93139.75
2022-12-11T18:01:49.654Z,93141.31
2022-12-11T18:04:16.827Z,93141.50
2022-12-11T18:06:43.814Z,93138.38
2022-12-11T18:09:11.388Z,93139.38
2022-12-11T18:11:38.363Z,93148.00
2022-12-11T18:14:05.433Z,93153.13
2022-12-11T18:16:35.674Z,93162.00
2022-12-11T18:19:02.805Z,93155.00
2022-12-11T18:21:36.051Z,93163.03
2022-12-11T18:24:03.075Z,93167.34
2022-12-11T18:26:30.063Z,93165.97
2022-12-11T18:28:57.006Z,93154.66
2022-12-11T18:31:24.406Z,93153.91
2022-12-11T18:33:52.167Z,93155.88
2022-12-11T18:36:20.732Z,93158.84
2022-12-11T18:38:48.369Z,93160.47
2022-12-11T18:41:17.602Z,93158.00
2022-12-11T18:43:44.841Z,93160.75
2022-12-11T18:46:14.552Z,93157.09
2022-12-11T18:48:43.323Z,93160.53
2022-12-11T18:51:17.247Z,93155.78
2022-12-11T18:53:44.586Z,93156.38
2022-12-11T18:56:14.763Z,93153.41
2022-12-11T18:58:42.444Z,93152.34
2022-12-11T19:01:12.381Z,93148.91
2022-12-11T19:03:51.436Z,93142.59
2022-12-11T19:06:24.410Z,93145.94
2022-12-11T19:08:51.656Z,93136.50
2022-12-11T19:11:22.223Z,93145.25
2022-12-11T19:13:50.445Z,93149.69
2022-12-11T19:16:19.518Z,93161.47
2022-12-11T19:18:46.786Z,93165.22
2022-12-11T19:21:15.688Z,93179.00
2022-12-11T19:23:43.705Z,93185.69
2022-12-11T19:26:13.765Z,93184.31
2022-12-11T19:28:40.871Z,93190.22
2022-12-11T19:31:13.521Z,93193.72
2022-12-11T19:33:41.670Z,93190.03
2022-12-11T19:36:13.249Z,93206.16
2022-12-11T19:38:42.225Z,93212.19
2022-12-11T19:41:22.427Z,93219.16
2022-12-11T19:43:50.919Z,93204.88
2022-12-11T19:46:18.882Z,93222.47
2022-12-11T19:48:49.230Z,93230.75
2022-12-11T19:51:22.157Z,93226.03
2022-12-11T19:53:49.607Z,93225.13
2022-12-11T19:56:19.145Z,93229.41
2022-12-11T19:58:46.985Z,93223.81
2022-12-11T20:01:26.583Z,93215.91
2022-12-11T20:03:54.685Z,93206.56
2022-12-11T20:06:22.044Z,93208.72
2022-12-11T20:08:49.260Z,93204.22
2022-12-11T20:11:18.607Z,93201.72
2022-12-11T20:13:49.133Z,93212.41
2022-12-11T20:16:17.299Z,93218.13
2022-12-11T20:18:44.292Z,93206.44
2022-12-11T20:21:15.462Z,93208.44
2022-12-11T20:23:42.907Z,93213.47
2022-12-11T20:26:12.508Z,93214.91
2022-12-11T20:28:40.165Z,93219.72
2022-12-11T20:31:12.483Z,93206.44
2022-12-11T20:33:43.755Z,93201.75
2022-12-11T20:36:12.326Z,93213.84
2022-12-11T20:38:40.386Z,93213.47
2022-12-11T20:41:10.727Z,93204.88
2022-12-11T20:43:39.078Z,93211.97
2022-12-11T20:46:08.055Z,93207.44
2022-12-11T20:48:35.637Z,93202.63
2022-12-11T20:51:04.264Z,93196.44
2022-12-11T20:53:31.494Z,93202.28
2022-12-11T20:55:58.525Z,93209.41
2022-12-11T20:58:25.551Z,93217.00
2022-12-11T21:00:53.534Z,93219.28
2022-12-11T21:03:20.544Z,93221.66
2022-12-11T21:05:47.767Z,93223.19
2022-12-11T21:08:14.863Z,93236.22
2022-12-11T21:10:46.603Z,93238.34
2022-12-11T21:13:13.578Z,93236.25
2022-12-11T21:15:41.368Z,93243.25
2022-12-11T21:18:08.445Z,93230.25
2022-12-11T21:20:36.416Z,93222.66
2022-12-11T21:23:04.099Z,93233.84
2022-12-11T21:25:31.599Z,93241.28
2022-12-11T21:27:58.552Z,93241.25
2022-12-11T21:30:25.602Z,93242.41
2022-12-11T21:32:53.370Z,93238.75
2022-12-11T21:35:20.303Z,93250.13
2022-12-11T21:37:47.346Z,93245.16
2022-12-11T21:40:14.517Z,93243.84
2022-12-11T21:42:41.514Z,93241.72
2022-12-11T21:47:55.717Z,93244.53
2022-12-11T21:50:23.319Z,93238.16
2022-12-11T21:52:50.311Z,93235.22
2022-12-11T21:55:18.363Z,93242.16
2022-12-11T21:57:45.303Z,93247.00
2022-12-11T22:00:13.107Z,93247.28
2022-12-11T22:02:41.325Z,93245.63
2022-12-11T22:05:09.208Z,93245.31
2022-12-11T22:07:36.394Z,93249.41
2022-12-11T22:10:05.195Z,93234.13
2022-12-11T22:12:32.807Z,93228.22
2022-12-11T22:14:59.776Z,93242.22
2022-12-11T22:17:26.774Z,93242.66
2022-12-11T22:19:53.902Z,93245.63
2022-12-11T22:22:20.938Z,93250.47
2022-12-11T22:24:47.893Z,93243.75
2022-12-11T22:27:19.047Z,93245.81
2022-12-11T22:29:48.945Z,93246.72
2022-12-11T22:32:15.943Z,93244.25
2022-12-11T22:34:42.988Z,93253.69
2022-12-11T22:37:09.986Z,93250.63
2022-12-11T22:39:37.039Z,93261.69
2022-12-11T22:42:04.503Z,93254.78
2022-12-11T22:44:31.466Z,93258.63
2022-12-11T22:46:58.380Z,93261.09
2022-12-11T22:49:25.310Z,93268.69
2022-12-11T22:51:52.450Z,93269.06
2022-12-11T22:54:19.919Z,93271.25
2022-12-11T22:56:46.943Z,93269.22
2022-12-11T22:59:14.024Z,93282.09
2022-12-11T23:01:41.044Z,93268.63
2022-12-11T23:04:07.925Z,93283.22
2022-12-11T23:06:35.639Z,93277.56
2022-12-11T23:09:04.822Z,93284.28
2022-12-11T23:11:37.463Z,93298.53
2022-12-11T23:14:05.868Z,93291.44
2022-12-11T23:16:33.160Z,93283.53
2022-12-11T23:19:00.588Z,93290.53
2022-12-11T23:21:28.748Z,93297.56
2022-12-11T23:23:57.073Z,93291.22
2022-12-11T23:26:24.535Z,93281.75
2022-12-11T23:28:51.517Z,93301.59
2022-12-11T23:31:18.536Z,93304.25
2022-12-11T23:33:45.561Z,93299.00
2022-12-11T23:36:13.572Z,93301.88
2022-12-11T23:38:41.040Z,93297.56
2022-12-11T23:41:10.540Z,93300.13
2022-12-11T23:43:37.893Z,93307.63
2022-12-11T23:46:08.765Z,93314.91
2022-12-11T23:48:35.729Z,93310.38
2022-12-11T23:51:04.744Z,93321.72
2022-12-11T23:53:31.701Z,93321.69
2022-12-11T23:56:07.237Z,93326.53
2022-12-11T23:58:36.738Z,93335.00
